Time;durP1;ratioP1;P1;durP2;ratioP2;P2;SDS_P1;SDS_P2;PMS_P1;PMS_P2;Temp;Humidity;BMP_temperature;BMP_pressure;BME280_temperature;BME280_humidity;BME280_pressure;Samples;Min_cycle;Max_cycle;Signal;HPM_P1;HPM_P2
2022/02/08 00:00:49;;;;;;;5.03;1.73;;;;;;;-0.43;71.04;95419.44;1784741;80;20987;-77
2022/02/08 00:03:13;;;;;;;4.70;1.70;;;;;;;-0.41;71.27;95420.78;1784553;80;21058;-77
2022/02/08 00:05:41;;;;;;;3.60;1.30;;;;;;;-0.36;71.10;95429.09;1784968;80;20955;-77
2022/02/08 00:08:07;;;;;;;4.33;2.17;;;;;;;-0.40;71.61;95432.88;1784667;80;20947;-78
2022/02/08 00:10:34;;;;;;;4.23;2.23;;;;;;;-0.37;71.64;95442.91;1785074;80;21014;-77
2022/02/08 00:13:00;;;;;;;5.53;2.10;;;;;;;-0.31;71.38;95449.94;1785007;80;21016;-77
2022/02/08 00:15:27;;;;;;;4.57;1.83;;;;;;;-0.31;71.85;95448.64;1784601;80;21058;-77
2022/02/08 00:17:54;;;;;;;3.27;1.80;;;;;;;-0.32;71.85;95441.28;1784909;80;20990;-78
2022/02/08 00:20:21;;;;;;;3.33;1.80;;;;;;;-0.27;71.61;95447.88;1784945;80;21019;-77
2022/02/08 00:22:47;;;;;;;3.03;1.70;;;;;;;-0.27;71.65;95447.88;1784689;80;20982;-77
2022/02/08 00:25:14;;;;;;;3.93;2.20;;;;;;;-0.27;71.49;95454.34;1784959;80;21830;-77
2022/02/08 00:27:40;;;;;;;4.57;1.87;;;;;;;-0.30;71.66;95454.30;1785001;80;21023;-77
2022/02/08 00:30:08;;;;;;;7.70;2.50;;;;;;;-0.23;72.12;95458.34;1784720;80;21003;-78
2022/02/08 00:32:35;;;;;;;3.50;1.70;;;;;;;-0.21;71.85;95471.31;1784969;80;21484;-77
2022/02/08 00:35:01;;;;;;;5.00;1.80;;;;;;;-0.19;71.78;95464.88;1758765;80;20994;-77
2022/02/08 00:37:29;;;;;;;3.93;2.83;;;;;;;-0.23;71.62;95474.30;1784362;80;21038;-77
2022/02/08 00:39:56;;;;;;;5.83;2.33;;;;;;;-0.19;71.96;95472.66;1784918;80;21019;-77
2022/02/08 00:42:24;;;;;;;9.17;2.77;;;;;;;-0.18;71.99;95475.69;1784688;80;21022;-78
2022/02/08 00:45:04;;;;;;;2.00;1.37;;;;;;;-0.17;72.15;95467.95;1784802;80;21054;-78
2022/02/08 00:47:38;;;;;;;2.73;1.70;;;;;;;-0.15;72.17;95481.83;1782208;80;20991;-77
2022/02/08 00:50:05;;;;;;;4.13;2.30;;;;;;;-0.15;71.90;95480.53;1782788;80;21019;-77
2022/02/08 00:52:26;;;;;;;4.73;2.57;;;;;;;-0.14;72.15;95483.57;1783719;80;21046;-77
2022/02/08 00:54:52;;;;;;;5.63;2.03;;;;;;;-0.17;72.54;95496.48;1784603;80;21065;-77
2022/02/08 00:57:19;;;;;;;2.67;2.03;;;;;;;-0.18;72.68;95490.82;1784748;80;21050;-77
2022/02/08 00:59:46;;;;;;;5.70;2.30;;;;;;;-0.17;72.34;95496.48;1785000;80;21073;-77
2022/02/08 01:02:14;;;;;;;4.13;1.93;;;;;;;-0.20;72.33;95488.64;1784598;80;21058;-77
2022/02/08 01:04:47;;;;;;;3.20;1.60;;;;;;;-0.28;72.89;95497.56;1784739;80;21485;-77
2022/02/08 01:07:10;;;;;;;5.13;2.33;;;;;;;-0.24;72.63;95490.70;1783998;80;21066;-77
2022/02/08 01:12:06;;;;;;;7.90;3.10;;;;;;;-0.22;72.58;95490.33;1784671;80;21524;-78
2022/02/08 01:14:38;;;;;;;5.00;2.00;;;;;;;-0.24;72.48;95495.89;1784931;80;21478;-77
2022/02/08 01:17:01;;;;;;;7.30;2.33;;;;;;;-0.26;72.50;95500.16;1784277;80;21011;-77
2022/02/08 01:19:28;;;;;;;5.13;2.30;;;;;;;-0.24;72.66;95497.19;1784707;80;21520;-77
2022/02/08 01:21:54;;;;;;;5.53;2.30;;;;;;;-0.27;73.11;95493.24;1758363;80;21011;-77
2022/02/08 01:24:21;;;;;;;5.10;2.23;;;;;;;-0.24;72.65;95499.78;1784939;80;21018;-77
2022/02/08 01:26:55;;;;;;;6.60;2.57;;;;;;;-0.18;72.60;95506.80;1784617;80;20983;-77
2022/02/08 01:29:29;;;;;;;4.53;2.63;;;;;;;-0.12;72.65;95505.66;1783857;80;21002;-77
2022/02/08 01:31:49;;;;;;;5.57;2.20;;;;;;;-0.11;72.50;95509.56;1782593;80;21058;-77
2022/02/08 01:34:34;;;;;;;7.20;2.53;;;;;;;-0.11;72.48;95514.75;1784741;80;21042;-77
2022/02/08 01:37:06;;;;;;;8.60;2.67;;;;;;;-0.09;72.37;95510.47;1780091;80;21566;-77
2022/02/08 01:39:31;;;;;;;5.30;2.40;;;;;;;-0.08;72.50;95521.29;1777278;81;21023;-77
2022/02/08 01:42:20;;;;;;;4.47;2.30;;;;;;;-0.11;72.77;95519.94;1778756;81;21054;-77
2022/02/08 01:44:41;;;;;;;4.63;2.50;;;;;;;-0.14;72.62;95517.71;1775522;81;21015;-77
2022/02/08 01:51:57;;;;;;;6.03;2.40;;;;;;;-0.11;72.78;95530.73;1779441;81;20955;-77
2022/02/08 01:54:25;;;;;;;6.60;2.03;;;;;;;-0.13;73.00;95531.98;1779109;80;21047;-77
2022/02/08 01:56:54;;;;;;;6.53;2.80;;;;;;;-0.15;73.03;95533.70;1779353;80;21480;-77
2022/02/08 01:59:23;;;;;;;5.67;2.70;;;;;;;-0.15;73.11;95535.00;1779314;80;21010;-77
2022/02/08 02:01:51;;;;;;;3.80;2.03;;;;;;;-0.13;72.91;95544.95;1779353;80;21543;-77
2022/02/08 02:04:17;;;;;;;6.87;2.67;;;;;;;-0.13;72.74;95541.06;1779295;81;21457;-77
2022/02/08 02:06:44;;;;;;;5.20;2.63;;;;;;;-0.10;72.85;95541.55;1779325;81;21007;-77
2022/02/08 02:09:13;;;;;;;4.37;1.87;;;;;;;-0.11;72.84;95538.52;1778329;81;21022;-77
2022/02/08 02:11:39;;;;;;;7.63;2.40;;;;;;;-0.11;72.61;95543.70;1751333;81;21015;-77
2022/02/08 02:14:06;;;;;;;4.10;2.47;;;;;;;-0.16;72.74;95548.78;1779071;80;21476;-78
2022/02/08 02:19:06;;;;;;;5.83;2.15;;;;;;;-0.16;72.80;95544.03;1779433;81;21524;-77
2022/02/08 02:21:34;;;;;;;4.73;1.80;;;;;;;-0.22;73.01;95560.33;1779418;81;21066;-77
2022/02/08 02:24:01;;;;;;;5.57;2.50;;;;;;;-0.23;72.85;95566.34;1779381;81;21449;-77
2022/02/08 02:26:27;;;;;;;4.43;2.60;;;;;;;-0.28;72.93;95566.27;1779296;80;21078;-77
2022/02/08 02:28:54;;;;;;;5.03;2.60;;;;;;;-0.31;72.97;95563.58;1779302;81;21098;-77
2022/02/08 02:31:21;;;;;;;6.00;2.53;;;;;;;-0.31;73.06;95567.47;1779479;80;20983;-77
2022/02/08 02:33:50;;;;;;;7.37;2.60;;;;;;;-0.32;73.04;95570.91;1779206;81;21058;-77
2022/02/08 02:36:16;;;;;;;5.33;2.77;;;;;;;-0.35;73.02;95582.52;1779012;81;21019;-77
2022/02/08 02:38:43;;;;;;;2.97;1.70;;;;;;;-0.36;73.16;95582.47;1783894;80;21026;-77
2022/02/08 02:41:12;;;;;;;5.30;2.43;;;;;;;-0.37;73.25;95594.56;1784682;80;21026;-77
2022/02/08 02:43:41;;;;;;;5.87;2.20;;;;;;;-0.39;73.72;95598.83;1785008;80;21014;-77
2022/02/08 02:46:08;;;;;;;7.83;3.00;;;;;;;-0.41;73.91;95602.22;1785037;80;21488;-77
2022/02/08 02:48:35;;;;;;;7.43;2.73;;;;;;;-0.35;73.55;95604.95;1784941;80;21030;-77
2022/02/08 02:51:02;;;;;;;6.40;2.90;;;;;;;-0.41;73.52;95604.81;1784933;80;20975;-77
2022/02/08 02:53:33;;;;;;;6.50;2.40;;;;;;;-0.41;73.56;95608.28;1784258;80;21015;-77
2022/02/08 02:56:01;;;;;;;6.53;2.67;;;;;;;-0.44;73.53;95605.63;1784680;80;21057;-77
2022/02/08 02:58:31;;;;;;;4.93;2.60;;;;;;;-0.48;73.40;95613.76;1784926;80;21034;-77
2022/02/08 03:01:23;;;;;;;7.60;2.40;;;;;;;-0.56;74.03;95620.88;1784664;80;21070;-77
2022/02/08 03:03:56;;;;;;;;;;;;;;;-0.58;73.72;95625.14;1785689;80;21524;-77
2022/02/08 03:17:53;;;;;;;6.90;2.47;;;;;;;-0.67;73.94;95654.30;1784938;80;20979;-77
2022/02/08 03:20:08;;;;;;;8.37;2.90;;;;;;;-0.58;73.89;95666.59;1781737;80;21035;-77
2022/02/08 03:22:35;;;;;;;7.80;2.70;;;;;;;-0.56;73.94;95670.98;1784829;80;21453;-77
2022/02/08 03:25:02;;;;;;;7.37;2.70;;;;;;;-0.53;73.88;95671.48;1785000;80;20995;-77
2022/02/08 03:27:29;;;;;;;3.03;2.17;;;;;;;-0.53;73.97;95674.07;1784982;80;21508;-77
2022/02/08 03:29:56;;;;;;;4.97;2.17;;;;;;;-0.49;73.90;95679.37;1784922;80;21007;-77
2022/02/08 03:32:24;;;;;;;6.07;3.03;;;;;;;-0.45;73.85;95682.52;1784800;80;21022;-77
2022/02/08 03:34:51;;;;;;;6.53;2.90;;;;;;;-0.48;73.78;95679.86;1784907;80;21023;-77
2022/02/08 03:37:19;;;;;;;4.33;2.27;;;;;;;-0.48;73.72;95691.52;1758831;80;20987;-77
2022/02/08 03:39:57;;;;;;;6.87;2.43;;;;;;;-0.49;73.93;95693.63;1784609;80;20986;-77
2022/02/08 03:42:21;;;;;;;6.80;2.60;;;;;;;-0.48;73.59;95691.52;1783803;80;21002;-77
2022/02/08 03:44:48;;;;;;;8.07;2.70;;;;;;;-0.47;73.77;95693.69;1784797;80;21023;-77
2022/02/08 03:47:17;;;;;;;9.70;2.53;;;;;;;-0.47;73.55;95700.16;1784907;80;20999;-77
2022/02/08 03:49:44;;;;;;;8.43;2.40;;;;;;;-0.47;73.77;95704.92;1784899;80;21030;-77
2022/02/08 03:52:11;;;;;;;6.37;2.40;;;;;;;-0.44;73.70;95710.60;1785027;80;20954;-77
2022/02/08 03:54:40;;;;;;;7.33;2.30;;;;;;;-0.46;74.03;95717.03;1784697;80;21082;-77
2022/02/08 03:57:09;;;;;;;5.30;2.20;;;;;;;-0.42;74.01;95715.84;1785119;80;20982;-77
2022/02/08 03:59:37;;;;;;;4.13;2.17;;;;;;;-0.43;73.86;95721.41;1784886;80;20995;-78
2022/02/08 04:02:53;;;;;;;7.20;2.30;;;;;;;-0.42;73.73;95732.27;1784909;80;20998;-77
2022/02/08 04:07:12;;;;;;;6.53;3.17;;;;;;;-0.47;73.80;95735.16;1785301;80;21006;-77
2022/02/08 04:09:32;;;;;;;7.60;2.77;;;;;;;-0.44;73.73;95738.69;1783748;80;21485;-78
2022/02/08 04:12:03;;;;;;;9.43;2.43;;;;;;;-0.40;73.70;95753.02;1784874;80;21006;-77
2022/02/08 04:17:26;;;;;;;10.73;3.33;;;;;;;-0.41;74.01;95754.73;1785042;80;20947;-78
2022/02/08 04:33:42;;;;;;;8.77;3.00;;;;;;;-0.35;72.79;95790.31;1784661;80;21022;-78
2022/02/08 04:38:37;;;;;;;7.07;2.73;;;;;;;-0.39;73.09;95793.25;1784723;80;21579;-77
2022/02/08 04:43:27;;;;;;;6.80;2.13;;;;;;;-0.35;72.88;95805.86;1784752;80;21441;-78
2022/02/08 04:46:04;;;;;;;10.17;2.80;;;;;;;-0.40;72.66;95801.88;1783758;80;20998;-78
2022/02/08 04:50:53;;;;;;;9.40;2.63;;;;;;;-0.44;73.12;95811.27;1784788;80;21548;-78
2022/02/08 04:53:28;;;;;;;9.67;2.53;;;;;;;-0.43;73.28;95809.55;1784259;80;21062;-78
2022/02/08 04:56:07;;;;;;;11.07;2.97;;;;;;;-0.43;73.23;95814.73;1782703;80;21023;-78
2022/02/08 04:58:36;;;;;;;6.90;3.10;;;;;;;-0.46;73.18;95815.53;1782399;80;21509;-78
2022/02/08 05:01:13;;;;;;;8.57;2.67;;;;;;;-0.45;73.19;95825.51;1783512;80;21026;-78
2022/02/08 05:41:49;;;;;;;6.73;2.80;;;;;;;-0.42;73.81;95900.76;1724323;83;21524;-78
2022/02/08 05:46:53;;;;;;;14.23;4.40;;;;;;;-0.44;73.14;95907.19;1724228;83;21019;-78
2022/02/08 05:49:26;;;;;;;40.80;25.97;;;;;;;-0.47;73.09;95914.88;1724338;83;21135;-78
2022/02/08 05:54:21;;;;;;;10.80;3.53;;;;;;;-0.46;73.29;95919.22;1724105;83;21027;-77
2022/02/08 05:56:52;;;;;;;12.33;4.10;;;;;;;-0.45;74.06;95921.42;1724294;83;21054;-77
2022/02/08 05:59:16;;;;;;;11.40;4.47;;;;;;;-0.46;73.89;95923.53;1723777;83;21062;-78
2022/02/08 06:01:42;;;;;;;8.37;3.03;;;;;;;-0.38;73.09;95932.82;1724606;82;21033;-78
2022/02/08 06:04:11;;;;;;;10.43;3.43;;;;;;;-0.37;72.67;95928.98;1718560;83;21035;-75
2022/02/08 06:06:38;;;;;;;9.17;2.57;;;;;;;-0.32;72.68;95928.70;1724283;83;21011;-82
2022/02/08 06:09:05;;;;;;;10.73;4.10;;;;;;;-0.34;72.28;95941.16;1724502;83;21028;-76
2022/02/08 06:11:35;;;;;;;13.80;3.43;;;;;;;-0.31;72.61;95946.00;1724455;83;21083;-78
2022/02/08 06:14:00;;;;;;;7.77;2.90;;;;;;;-0.25;72.18;95955.70;1724117;83;21050;-81
2022/02/08 06:16:27;;;;;;;8.40;2.77;;;;;;;-0.27;71.70;95950.45;1723878;82;21473;-77
2022/02/08 06:18:54;;;;;;;8.90;2.13;;;;;;;-0.30;71.33;95941.30;1724045;82;21031;-73
2022/02/08 06:21:20;;;;;;;9.73;6.40;;;;;;;-0.28;71.47;95959.08;1722858;83;21038;-84
2022/02/08 06:23:47;;;;;;;8.90;3.03;;;;;;;-0.28;71.73;95960.77;1723357;83;21058;-76
2022/02/08 06:26:15;;;;;;;9.67;3.10;;;;;;;-0.26;71.28;95966.46;1722898;83;21077;-78
2022/02/08 06:28:43;;;;;;;9.33;2.53;;;;;;;-0.29;71.87;95968.97;1723439;83;21057;-74
2022/02/08 06:31:10;;;;;;;7.60;2.57;;;;;;;-0.23;71.37;95978.63;1723658;83;21038;-77
2022/02/08 06:33:37;;;;;;;8.90;2.77;;;;;;;-0.18;70.88;95985.26;1723436;83;21539;-80
2022/02/08 06:36:04;;;;;;;12.90;3.53;;;;;;;-0.15;70.92;95982.36;1723478;83;21026;-75
2022/02/08 06:38:31;;;;;;;6.00;2.20;;;;;;;-0.13;70.83;95981.08;1732080;82;21041;-73
2022/02/08 06:40:58;;;;;;;7.13;2.97;;;;;;;-0.11;70.36;95989.37;1734724;82;21101;-80
2022/02/08 06:43:28;;;;;;;5.93;2.53;;;;;;;-0.11;70.00;95998.87;1742184;81;21078;-79
2022/02/08 06:45:52;;;;;;;11.60;3.20;;;;;;;-0.11;70.25;95991.09;1730636;81;21046;-80
2022/02/08 06:48:19;;;;;;;16.03;6.03;;;;;;;-0.09;70.16;95998.50;1722735;82;20967;-77
2022/02/08 06:50:45;;;;;;;11.40;3.30;;;;;;;-0.06;70.71;96001.17;1725351;82;21579;-78
2022/02/08 06:53:13;;;;;;;10.50;2.80;;;;;;;-0.03;70.04;96000.83;1722529;82;21379;-82
2022/02/08 06:55:39;;;;;;;14.97;4.83;;;;;;;0.00;70.07;96014.34;1723044;82;21013;-78
2022/02/08 06:58:08;;;;;;;13.43;4.13;;;;;;;0.08;69.89;96013.27;1719705;82;21027;-81
2022/02/08 07:00:43;;;;;;;12.63;4.03;;;;;;;0.07;69.64;96001.98;1732974;82;21446;-73
2022/02/08 07:03:13;;;;;;;8.63;2.93;;;;;;;0.08;69.97;96006.35;1722594;82;21527;-75
2022/02/08 07:05:41;;;;;;;9.33;2.90;;;;;;;0.10;69.92;96016.36;1722128;82;21082;-78
2022/02/08 07:08:09;;;;;;;6.90;2.97;;;;;;;0.08;69.79;96018.02;1726049;82;22283;-77
2022/02/08 07:10:36;;;;;;;10.20;2.60;;;;;;;0.14;70.18;96023.37;1720454;82;21070;-79
2022/02/08 07:13:06;;;;;;;7.10;2.70;;;;;;;0.20;70.19;96036.94;1723348;82;21097;-82
2022/02/08 07:15:32;;;;;;;10.10;3.10;;;;;;;0.22;70.49;96041.75;1723699;83;21129;-76
2022/02/08 07:18:00;;;;;;;8.53;2.73;;;;;;;0.26;70.47;96043.61;1723736;82;21038;-80
2022/02/08 07:20:27;;;;;;;6.37;2.77;;;;;;;0.20;70.64;96037.84;1723731;83;21485;-81
2022/02/08 07:22:53;;;;;;;13.20;6.10;;;;;;;0.21;70.64;96032.22;1724116;83;21014;-80
2022/02/08 07:25:20;;;;;;;8.50;2.83;;;;;;;0.20;70.64;96050.81;1723621;82;21034;-76
2022/02/08 07:27:46;;;;;;;13.87;5.53;;;;;;;0.17;70.76;96048.53;1723949;83;21069;-72
2022/02/08 07:30:13;;;;;;;10.80;5.57;;;;;;;0.18;70.73;96051.61;1723421;83;21046;-71
2022/02/08 07:32:43;;;;;;;11.93;5.63;;;;;;;0.23;71.14;96048.72;1723038;82;21079;-85
2022/02/08 07:38:11;;;;;;;7.40;4.03;;;;;;;0.42;71.36;96066.97;1707484;83;20997;-70
2022/02/08 07:40:39;;;;;;;9.87;3.50;;;;;;;0.45;70.72;96064.45;1702159;83;21073;-82
2022/02/08 07:42:55;;;;;;;9.27;3.33;;;;;;;0.43;70.60;96062.27;1750215;82;21109;-81
2022/02/08 07:45:24;;;;;;;13.73;4.43;;;;;;;0.43;71.02;96060.97;1751484;82;21066;-78
2022/02/08 07:47:52;;;;;;;13.33;4.30;;;;;;;0.47;70.70;96065.81;1753424;81;21151;-80
2022/02/08 07:50:24;;;;;;;11.33;4.53;;;;;;;0.53;70.96;96064.27;1753585;82;20994;-84
2022/02/08 07:52:52;;;;;;;20.23;8.97;;;;;;;0.61;70.98;96062.76;1753386;82;21155;-83
2022/02/08 07:55:23;;;;;;;11.20;4.90;;;;;;;0.72;70.97;96064.34;1754125;81;21084;-83
2022/02/08 07:57:50;;;;;;;12.23;5.10;;;;;;;0.74;70.88;96060.49;1752773;82;21579;-78
2022/02/08 08:00:18;;;;;;;8.90;3.57;;;;;;;0.74;70.66;96069.59;1752507;82;21198;-80
2022/02/08 08:02:44;;;;;;;11.77;4.63;;;;;;;0.67;70.16;96065.94;1754240;82;21014;-83
2022/02/08 08:05:12;;;;;;;10.20;5.50;;;;;;;0.66;70.51;96069.81;1742921;82;20991;-75
2022/02/08 08:07:39;;;;;;;13.83;6.53;;;;;;;0.64;70.75;96072.34;1673510;85;21548;-80
2022/02/08 08:10:06;;;;;;;11.97;5.00;;;;;;;0.61;71.12;96082.66;1693888;84;20991;-74
2022/02/08 08:12:36;;;;;;;12.93;3.93;;;;;;;0.66;71.25;96081.49;1715338;84;21013;-81
2022/02/08 08:15:10;;;;;;;11.33;3.97;;;;;;;0.74;70.83;96086.47;1714498;84;21096;-80
2022/02/08 08:17:53;;;;;;;8.87;3.57;;;;;;;0.74;70.45;96097.73;1714189;84;21554;-79
2022/02/08 08:20:07;;;;;;;7.47;3.80;;;;;;;0.74;70.40;96093.83;1712348;83;21046;-83
2022/02/08 08:22:34;;;;;;;13.70;4.13;;;;;;;0.68;70.80;96099.27;1714107;83;21094;-76
2022/02/08 08:25:02;;;;;;;6.40;2.13;;;;;;;0.66;70.82;96095.35;1714113;83;21360;-75
2022/02/08 08:27:28;;;;;;;12.97;5.00;;;;;;;0.61;70.99;96096.52;1715062;84;21133;-78
2022/02/08 08:29:55;;;;;;;11.73;4.00;;;;;;;0.45;72.58;96102.10;1715655;84;21078;-78
2022/02/08 08:32:21;;;;;;;16.17;9.90;;;;;;;0.49;73.10;96105.26;1715488;83;21012;-76
2022/02/08 08:34:48;;;;;;;9.33;2.70;;;;;;;0.49;72.66;96114.77;1715895;83;21012;-83
2022/02/08 08:37:14;;;;;;;16.70;8.50;;;;;;;0.46;72.65;96114.27;1715536;83;21047;-81
2022/02/08 08:39:47;;;;;;;9.80;4.03;;;;;;;0.48;73.17;96116.88;1715537;83;21094;-79
2022/02/08 08:42:34;;;;;;;12.60;6.40;;;;;;;0.44;72.61;96113.33;1724290;82;21088;-80
2022/02/08 08:45:06;;;;;;;6.03;2.33;;;;;;;0.46;73.04;96120.75;1725449;82;21042;-85
2022/02/08 08:52:52;;;;;;;6.50;2.50;;;;;;;0.58;72.61;96124.09;1723506;82;21022;-80
2022/02/08 08:55:19;;;;;;;16.47;11.73;;;;;;;0.53;71.54;96142.17;1723791;82;20983;-81
2022/02/08 08:57:45;;;;;;;16.17;6.20;;;;;;;0.50;71.89;96143.78;1723221;82;21077;-76
2022/02/08 09:00:13;;;;;;;12.03;7.07;;;;;;;0.57;71.70;96147.89;1722915;83;21037;-77
2022/02/08 09:02:40;;;;;;;7.07;2.70;;;;;;;0.57;71.32;96147.89;1723086;83;22307;-79
2022/02/08 09:05:11;;;;;;;2.77;1.93;;;;;;;0.58;71.04;96155.25;1722705;82;21017;-79
2022/02/08 09:07:38;;;;;;;6.27;2.43;;;;;;;0.55;70.39;96152.58;1723057;82;21110;-81
2022/02/08 09:10:07;;;;;;;7.27;3.03;;;;;;;0.54;70.31;96159.92;1723082;82;20999;-81
2022/02/08 09:13:03;;;;;;;6.83;2.47;;;;;;;0.53;70.10;96155.15;1722330;83;21628;-78
2022/02/08 09:15:21;;;;;;;3.87;1.20;;;;;;;0.48;69.83;96158.42;1726387;82;21642;-74
2022/02/08 09:20:44;;;;;;;5.63;2.10;;;;;;;0.54;69.65;96162.09;1740917;81;20971;-72
2022/02/08 09:28:09;;;;;;;12.63;8.53;;;;;;;0.50;69.65;96172.34;1741040;82;21147;-82
2022/02/08 09:30:39;;;;;;;23.53;16.30;;;;;;;0.55;70.29;96177.25;1722069;82;21014;-77
2022/02/08 09:32:59;;;;;;;14.63;7.57;;;;;;;0.63;70.28;96179.64;1739606;82;21575;-82
2022/02/08 09:35:26;;;;;;;11.53;5.40;;;;;;;0.72;70.32;96179.91;1741407;82;21117;-80
2022/02/08 09:37:52;;;;;;;12.27;3.90;;;;;;;0.69;70.08;96188.05;1740592;81;21142;-78
2022/02/08 09:40:21;;;;;;;7.23;2.60;;;;;;;0.75;69.55;96170.03;1739746;81;21062;-80
2022/02/08 09:42:51;;;;;;;7.57;3.87;;;;;;;0.76;69.08;96173.11;1735415;83;21081;-79
2022/02/08 09:45:20;;;;;;;14.83;3.93;;;;;;;0.77;69.27;96173.56;1735570;82;21521;-78
2022/02/08 09:48:06;;;;;;;12.90;7.50;;;;;;;0.88;69.00;96169.95;1736487;82;21019;-81
2022/02/08 09:50:32;;;;;;;8.67;4.27;;;;;;;0.95;69.11;96169.30;1735676;82;21046;-76
2022/02/08 09:53:01;;;;;;;4.83;2.50;;;;;;;1.00;68.81;96172.47;1735533;82;21090;-75
2022/02/08 09:55:40;;;;;;;3.67;2.27;;;;;;;1.05;68.45;96159.61;1725624;83;21088;-84
2022/02/08 09:58:09;;;;;;;8.47;3.50;;;;;;;1.00;68.11;96154.28;1714189;84;21090;-81
2022/02/08 10:00:39;;;;;;;7.23;3.30;;;;;;;1.10;68.41;96151.94;1714432;83;21137;-76
2022/02/08 10:03:13;;;;;;;6.40;3.70;;;;;;;1.07;68.16;96154.91;1714678;83;21070;-78
2022/02/08 10:05:52;;;;;;;6.33;2.57;;;;;;;1.09;68.08;96162.77;1715142;84;21627;-77
2022/02/08 10:08:21;;;;;;;6.07;2.93;;;;;;;1.13;67.61;96161.11;1715496;83;21090;-74
2022/02/08 10:10:48;;;;;;;8.93;3.57;;;;;;;1.15;67.66;96163.34;1713983;83;21002;-75
2022/02/08 10:13:46;;;;;;;6.70;2.70;;;;;;;1.19;68.33;96166.50;1727609;83;21052;-76
2022/02/08 10:19:16;;;;;;;4.90;2.77;;;;;;;1.15;68.11;96162.04;1715293;83;21088;-76
2022/02/08 10:21:41;;;;;;;7.80;4.97;;;;;;;1.23;68.03;96158.79;1712111;84;21107;-76
2022/02/08 10:24:09;;;;;;;6.27;3.70;;;;;;;1.31;68.13;96155.12;1715585;83;21096;-77
2022/02/08 10:26:44;;;;;;;6.33;2.67;;;;;;;1.26;67.31;96155.39;1716003;83;21072;-77
2022/02/08 10:37:47;;;;;;;7.97;2.67;;;;;;;0.99;68.17;96173.75;1715307;84;21507;-76
2022/02/08 10:40:17;;;;;;;7.93;3.47;;;;;;;0.96;68.44;96178.83;1714812;83;21096;-77
2022/02/08 10:42:59;;;;;;;9.20;3.70;;;;;;;0.95;68.35;96178.39;1715467;84;21072;-77
2022/02/08 10:45:35;;;;;;;3.03;2.00;;;;;;;0.90;68.21;96187.34;1715032;83;21076;-77
2022/02/08 10:48:09;;;;;;;6.77;2.73;;;;;;;0.83;68.45;96183.72;1715849;83;21044;-77
2022/02/08 10:50:41;;;;;;;8.90;3.93;;;;;;;0.78;68.64;96183.09;1707223;84;21033;-77
2022/02/08 10:53:10;;;;;;;5.47;4.00;;;;;;;0.78;68.89;96182.70;1716402;83;21036;-78
2022/02/08 11:03:29;;;;;;;6.40;1.60;;;;;;;0.91;67.83;96188.22;1716350;84;21036;-78
2022/02/08 11:11:51;;;;;;;8.07;2.40;;;;;;;0.98;68.02;96191.06;1716368;83;21016;-77
2022/02/08 11:25:31;;;;;;;7.50;4.13;;;;;;;1.29;67.79;96190.16;1644276;86;21058;-77
2022/02/08 11:28:23;;;;;;;9.43;3.50;;;;;;;1.42;67.95;96195.69;1701019;84;21017;-77
2022/02/08 11:31:06;;;;;;;10.00;4.60;;;;;;;1.50;67.82;96193.73;1714651;84;21068;-77
2022/02/08 11:33:53;;;;;;;6.13;2.43;;;;;;;1.46;67.53;96204.02;1715467;84;21056;-77
2022/02/08 11:45:32;;;;;;;7.23;2.73;;;;;;;1.25;67.08;96201.73;1721798;82;21502;-77
2022/02/08 12:02:41;;;;;;;5.72;2.50;;;;;;;1.46;66.46;96198.81;1721885;82;21159;-78
2022/02/08 12:53:48;;;;;;;7.43;2.60;;;;;;;1.34;67.72;96219.31;1721683;83;21032;-77
2022/02/08 12:56:10;;;;;;;6.43;2.37;;;;;;;1.37;67.53;96222.00;1719097;83;21017;-76
2022/02/08 13:01:29;;;;;;;5.87;2.10;;;;;;;1.29;67.98;96225.27;1721508;83;21120;-77
2022/02/08 13:04:10;;;;;;;7.90;3.10;;;;;;;1.28;67.37;96224.78;1719663;83;21009;-78
2022/02/08 13:14:30;;;;;;;8.20;2.77;;;;;;;1.35;68.06;96223.23;1714371;83;21080;-77
2022/02/08 14:09:17;;;;;;;5.53;2.93;;;;;;;2.71;58.21;96210.48;1716451;83;21064;-78
2022/02/08 14:16:50;;;;;;;5.17;2.40;;;;;;;1.86;60.08;96210.23;1716257;83;21131;-79
2022/02/08 14:19:29;;;;;;;4.20;2.10;;;;;;;1.66;60.98;96205.83;1714467;84;21048;-80
2022/02/08 14:24:34;;;;;;;6.60;3.87;;;;;;;1.59;61.83;96212.63;1716411;83;21494;-80
2022/02/08 14:32:18;;;;;;;5.67;2.63;;;;;;;1.84;60.98;96214.13;1716407;83;21044;-79
2022/02/08 14:34:59;;;;;;;4.10;2.00;;;;;;;1.96;61.46;96209.62;1713111;84;21007;-79
2022/02/08 15:00:06;;;;;;;6.33;3.47;;;;;;;1.41;61.76;96243.31;1721512;83;21080;-81
2022/02/08 15:07:52;;;;;;;4.13;2.70;;;;;;;1.15;62.71;96259.50;1721813;83;21088;-79
2022/02/08 15:09:53;;;;;;;4.20;2.67;;;;;;;1.09;62.74;96256.33;1717913;83;21020;-77
2022/02/08 15:12:17;;;;;;;4.47;2.50;;;;;;;0.99;63.10;96249.98;1720730;83;21040;-78
2022/02/08 15:14:50;;;;;;;6.97;3.73;;;;;;;0.95;63.10;96251.14;1721567;83;21000;-78
2022/02/08 15:17:15;;;;;;;5.13;1.90;;;;;;;0.95;63.23;96255.03;1721633;83;21496;-78
2022/02/08 15:19:44;;;;;;;2.97;1.43;;;;;;;0.92;63.24;96250.63;1721826;83;21001;-78
2022/02/08 15:22:11;;;;;;;5.67;2.20;;;;;;;0.89;63.37;96250.97;1721787;83;21071;-79
2022/02/08 15:24:39;;;;;;;4.90;1.80;;;;;;;0.76;64.05;96254.93;1721800;83;21503;-78
2022/02/08 15:27:08;;;;;;;4.63;1.80;;;;;;;0.64;64.56;96260.20;1721388;83;21049;-78
2022/02/08 15:29:35;;;;;;;4.47;1.60;;;;;;;0.50;64.21;96260.61;1721985;83;21028;-78
2022/02/08 15:32:05;;;;;;;8.53;2.37;;;;;;;0.45;64.18;96269.98;1721796;83;21491;-78
2022/02/08 15:34:32;;;;;;;12.63;5.83;;;;;;;0.37;64.14;96269.31;1721784;83;21040;-80
2022/02/08 15:36:58;;;;;;;10.83;4.63;;;;;;;0.32;63.86;96270.89;1721889;83;21065;-81
2022/02/08 15:39:25;;;;;;;7.30;4.10;;;;;;;0.25;64.09;96264.16;1722000;83;21024;-81
2022/02/08 15:41:52;;;;;;;6.33;2.90;;;;;;;0.17;64.23;96267.38;1721739;83;21562;-81
2022/02/08 15:44:22;;;;;;;8.27;3.03;;;;;;;0.10;64.30;96263.24;1721789;83;21037;-79
2022/02/08 15:46:48;;;;;;;4.63;2.97;;;;;;;-0.03;65.52;96271.92;1721397;83;21119;-79
2022/02/08 15:49:15;;;;;;;11.03;6.20;;;;;;;-0.16;65.36;96272.36;1721662;83;21005;-79
2022/02/08 15:51:57;;;;;;;41.23;19.93;;;;;;;-0.18;65.60;96277.90;1721824;83;21056;-81
2022/02/08 15:54:33;;;;;;;16.00;9.50;;;;;;;-0.28;66.38;96279.72;1720491;83;21009;-82
2022/02/08 16:07:57;;;;;;;3.80;1.20;;;;;;;-0.71;68.02;96298.95;1721622;83;21040;-78
2022/02/08 16:10:30;;;;;;;6.57;1.70;;;;;;;-0.75;68.38;96301.86;1721051;83;21032;-78
2022/02/08 16:13:08;;;;;;;5.77;1.40;;;;;;;-0.79;68.29;96306.88;1719188;83;21483;-79
2022/02/08 16:15:33;;;;;;;3.07;1.40;;;;;;;-0.93;69.40;96298.19;1717740;83;21056;-79
2022/02/08 16:50:27;;;;;;;3.63;2.10;;;;;;;-1.80;72.98;96290.95;1651114;86;21119;-80
2022/02/08 16:55:30;;;;;;;7.43;2.33;;;;;;;-1.86;73.03;96274.78;1682138;83;21040;-80
2022/02/08 16:58:08;;;;;;;3.87;2.13;;;;;;;-1.73;73.36;96275.27;1718875;83;21467;-79
2022/02/08 17:00:26;;;;;;;10.47;6.40;;;;;;;-1.58;73.87;96283.63;1719166;83;20997;-80
2022/02/08 17:02:57;;;;;;;4.83;1.73;;;;;;;-1.57;73.50;96288.84;1721937;83;21020;-80
2022/02/08 17:05:20;;;;;;;4.17;1.77;;;;;;;-1.48;73.37;96297.40;1720881;83;21052;-82
2022/02/08 17:07:47;;;;;;;3.50;1.57;;;;;;;-1.45;73.22;96299.23;1721752;83;21032;-78
2022/02/08 17:10:30;;;;;;;4.27;1.50;;;;;;;-1.43;72.97;96284.22;1721713;83;21052;-80
2022/02/08 17:12:54;;;;;;;6.67;1.73;;;;;;;-1.42;73.91;96288.98;1718566;83;21060;-79
2022/02/08 17:15:35;;;;;;;3.33;1.93;;;;;;;-1.41;73.71;96289.05;1719668;83;21041;-81
2022/02/08 17:18:13;;;;;;;4.97;1.87;;;;;;;-1.38;73.52;96290.46;1717648;83;21494;-81
2022/02/08 17:47:44;;;;;;;6.33;2.10;;;;;;;-1.39;73.24;96277.03;1716540;83;21021;-79
2022/02/08 17:50:14;;;;;;;2.23;1.30;;;;;;;-1.33;73.24;96281.58;1716469;83;21093;-80
2022/02/08 17:52:47;;;;;;;4.63;1.10;;;;;;;-1.31;73.46;96274.77;1716365;84;21033;-79
2022/02/08 17:55:16;;;;;;;3.60;1.50;;;;;;;-1.34;73.56;96269.02;1716338;84;21068;-79
2022/02/08 17:57:43;;;;;;;2.67;1.30;;;;;;;-1.30;74.06;96272.63;1716501;83;21075;-80
2022/02/08 18:00:13;;;;;;;3.77;2.00;;;;;;;-1.30;74.06;96268.75;1716122;84;21108;-80
2022/02/08 18:02:43;;;;;;;2.40;1.20;;;;;;;-1.28;73.93;96259.75;1716380;83;21049;-79
2022/02/08 18:05:11;;;;;;;33.53;17.53;;;;;;;-1.35;74.65;96259.50;1716464;83;21009;-79
2022/02/08 18:07:37;;;;;;;18.33;9.43;;;;;;;-1.28;74.07;96265.80;1716475;83;21041;-79
2022/02/08 18:10:06;;;;;;;17.30;8.73;;;;;;;-1.21;73.90;96256.16;1716589;84;21009;-80
2022/02/08 18:12:37;;;;;;;5.80;3.10;;;;;;;-1.20;73.99;96254.02;1716497;83;21001;-80
2022/02/08 18:15:10;;;;;;;17.27;10.17;;;;;;;-1.23;73.98;96255.20;1716341;84;21037;-80